Arcade, New York
Current Conditions -  °F | °C
As of 1:15 PM on Thursday 18 Dec 2014 (Local Time) from KOLE Reporting Station
Haze Haze  
Wind Chill: 20°   Ceiling: 500
Heat Index: 27°   Visibility: 5mi
Dew Point: 27°   Wind: 6mph
Humidity: 100%   Direction: 280°W
Pressure: 29.99"   Gusts: NA
Location:  42.53°N, 78.42°W
Report Text: KOLE 181815Z AUTO 28005KT 5SM BR OVC005 M03/M03 A2999 RMK AO2
Loading
Personal Weather Stations






























Interactive Weather Map New forecast layout! Learn more

10-Day Weather Forecast

Advertisements
Track Severe Weather on mobile